createdAt,value
2019-03-17T00:00:01.747Z,91.47
2019-03-17T00:05:01.072Z,91.56
2019-03-17T00:10:01.678Z,91.58
2019-03-17T00:15:05.789Z,91.63
2019-03-17T00:20:01.728Z,91.53
2019-03-17T00:25:08.983Z,91.59
2019-03-17T00:30:01.706Z,91.75
2019-03-17T00:35:01.045Z,91.94
2019-03-17T00:40:01.680Z,91.97
2019-03-17T00:45:01.053Z,91.97
2019-03-17T00:50:01.693Z,92.02
2019-03-17T00:55:01.048Z,92.23
2019-03-17T01:00:01.693Z,92.28
2019-03-17T01:05:01.097Z,92.25
2019-03-17T01:10:01.697Z,92.59
2019-03-17T01:15:01.044Z,92.52
2019-03-17T01:20:01.713Z,92.36
2019-03-17T01:25:01.019Z,92.31
2019-03-17T01:30:02.101Z,92.58
2019-03-17T01:35:08.955Z,92.52
2019-03-17T01:40:01.753Z,92.48
2019-03-17T01:45:01.018Z,92.64
2019-03-17T01:50:01.708Z,92.48
2019-03-17T01:55:01.045Z,92.57
2019-03-17T02:00:01.726Z,92.77
2019-03-17T02:05:01.013Z,93.03
2019-03-17T02:10:02.109Z,92.73
2019-03-17T02:15:01.035Z,92.85
2019-03-17T02:20:02.183Z,92.82
2019-03-17T02:25:01.035Z,92.99
2019-03-17T02:30:01.772Z,92.91
2019-03-17T02:35:01.027Z,92.94
2019-03-17T02:40:01.754Z,92.92
2019-03-17T02:45:01.052Z,93.01
2019-03-17T02:50:01.725Z,93.12
2019-03-17T02:55:01.025Z,93.11
2019-03-17T03:00:01.760Z,93.11
2019-03-17T03:05:01.021Z,93.09
2019-03-17T03:10:02.088Z,93.27
2019-03-17T03:15:01.047Z,93.09
2019-03-17T03:20:01.777Z,93.35
2019-03-17T03:25:01.081Z,93.41
2019-03-17T03:30:02.201Z,93.23
2019-03-17T03:35:01.036Z,93.42
2019-03-17T03:40:01.782Z,93.44
2019-03-17T03:45:01.042Z,93.53
2019-03-17T03:50:01.763Z,93.36
2019-03-17T03:55:01.020Z,93.48
2019-03-17T04:00:02.168Z,93.43
2019-03-17T04:05:01.025Z,93.23
2019-03-17T04:10:01.738Z,93.56
2019-03-17T04:15:01.075Z,93.49
2019-03-17T04:20:01.741Z,93.48
2019-03-17T04:25:01.057Z,93.37
2019-03-17T04:30:02.061Z,93.53
2019-03-17T04:35:01.075Z,93.54
2019-03-17T04:40:05.894Z,93.60
2019-03-17T04:45:01.055Z,93.59
2019-03-17T04:50:01.757Z,93.69
2019-03-17T04:55:01.019Z,93.75
2019-03-17T05:00:01.792Z,93.74
2019-03-17T05:05:01.022Z,93.54
2019-03-17T05:10:01.767Z,93.77
2019-03-17T05:15:01.038Z,93.89
2019-03-17T05:20:01.798Z,93.82
2019-03-17T05:25:01.101Z,94.01
2019-03-17T05:30:02.115Z,93.84
2019-03-17T05:35:01.052Z,93.94
2019-03-17T05:40:02.143Z,94.18
2019-03-17T05:45:01.055Z,93.83
2019-03-17T05:50:01.791Z,94.17
2019-03-17T05:55:01.024Z,94.32
2019-03-17T06:00:01.821Z,94.33
2019-03-17T06:05:01.061Z,94.31
2019-03-17T06:10:01.791Z,94.22
2019-03-17T06:15:01.027Z,94.45
2019-03-17T06:20:01.785Z,94.14
2019-03-17T06:25:01.303Z,94.09
2019-03-17T06:30:03.850Z,94.42
2019-03-17T06:35:01.568Z,94.24
2019-03-17T06:40:01.784Z,94.24
2019-03-17T06:45:01.037Z,94.20
2019-03-17T06:50:01.859Z,93.95
2019-03-17T06:55:01.085Z,93.83
2019-03-17T07:00:02.152Z,93.85
2019-03-17T07:05:01.060Z,93.71
2019-03-17T07:10:02.118Z,93.49
2019-03-17T07:15:01.059Z,93.03
2019-03-17T07:20:02.287Z,92.93
2019-03-17T07:25:01.079Z,92.24
2019-03-17T07:30:01.799Z,92.39
2019-03-17T07:35:01.052Z,92.71
2019-03-17T07:40:02.102Z,92.15
2019-03-17T07:45:01.026Z,90.39
2019-03-17T07:50:02.561Z,86.38
2019-03-17T07:55:07.518Z,87.25
2019-03-17T08:00:01.840Z,85.45
2019-03-17T08:05:01.066Z,80.21
2019-03-17T08:10:04.490Z,76.97
2019-03-17T08:15:01.040Z,75.54
2019-03-17T08:20:01.830Z,75.78
2019-03-17T08:25:01.087Z,72.75
2019-03-17T08:30:02.291Z,74.91
2019-03-17T08:35:01.026Z,74.24
2019-03-17T08:40:02.146Z,71.07
2019-03-17T08:45:01.340Z,69.92
2019-03-17T08:50:01.905Z,69.84
2019-03-17T08:55:01.028Z,67.11
2019-03-17T09:00:01.846Z,65.91
2019-03-17T09:05:01.041Z,61.16
2019-03-17T09:10:01.847Z,61.67
2019-03-17T09:15:01.026Z,61.77
2019-03-17T09:20:01.877Z,57.37
2019-03-17T09:25:01.085Z,56.28
2019-03-17T09:30:01.875Z,52.89
2019-03-17T09:35:01.035Z,54.87
2019-03-17T09:40:01.882Z,51.90
2019-03-17T09:45:01.031Z,51.47
2019-03-17T09:50:01.863Z,50.41
2019-03-17T09:55:01.078Z,48.35
2019-03-17T10:00:01.888Z,48.02
2019-03-17T10:05:01.087Z,46.44
2019-03-17T10:10:01.911Z,44.77
2019-03-17T10:15:01.605Z,41.70
2019-03-17T10:20:01.906Z,43.73
2019-03-17T10:25:01.101Z,42.43
2019-03-17T10:30:01.924Z,43.47
2019-03-17T10:35:01.095Z,43.72
2019-03-17T10:40:01.894Z,43.10
2019-03-17T10:45:01.095Z,42.28
2019-03-17T10:50:01.907Z,43.17
2019-03-17T10:55:01.083Z,41.27
2019-03-17T11:00:01.967Z,41.32
2019-03-17T11:05:01.411Z,41.58
2019-03-17T11:10:01.953Z,39.82
2019-03-17T11:15:01.490Z,39.29
2019-03-17T11:20:01.930Z,39.86
2019-03-17T11:25:01.545Z,37.91
2019-03-17T11:30:01.934Z,37.71
2019-03-17T11:35:01.615Z,36.99
2019-03-17T11:40:02.025Z,36.45
2019-03-17T11:45:01.112Z,37.22
2019-03-17T11:50:01.969Z,37.38
2019-03-17T11:55:01.079Z,35.48
2019-03-17T12:00:02.072Z,36.14
2019-03-17T12:05:01.594Z,36.97
2019-03-17T12:10:01.951Z,34.95
2019-03-17T12:15:01.139Z,36.02
2019-03-17T12:20:02.101Z,35.03
2019-03-17T12:25:01.100Z,34.57
2019-03-17T12:30:02.011Z,33.94
2019-03-17T12:35:01.049Z,33.58
2019-03-17T12:40:03.060Z,33.55
2019-03-17T12:45:01.195Z,34.58
2019-03-17T12:50:02.378Z,33.35
2019-03-17T12:55:02.464Z,33.42
2019-03-17T13:00:02.051Z,33.18
2019-03-17T13:05:01.084Z,32.91
2019-03-17T13:10:14.583Z,32.08
2019-03-17T13:15:01.048Z,34.10
2019-03-17T13:20:02.727Z,33.93
2019-03-17T13:25:01.053Z,33.37
2019-03-17T13:30:02.044Z,32.83
2019-03-17T13:35:01.060Z,32.77
2019-03-17T13:40:05.309Z,31.82
2019-03-17T13:45:01.142Z,32.59
2019-03-17T13:50:01.062Z,32.60
2019-03-17T13:55:01.068Z,32.86
2019-03-17T14:00:01.046Z,32.26
2019-03-17T14:05:02.006Z,0.00
2019-03-17T14:10:12.622Z,32.57
2019-03-17T14:15:01.066Z,32.46
2019-03-17T14:20:01.224Z,0.00
2019-03-17T14:25:01.375Z,34.25
2019-03-17T14:30:04.017Z,34.33
2019-03-17T14:35:01.081Z,35.19
2019-03-17T14:40:01.515Z,34.46
2019-03-17T14:45:01.046Z,36.00
2019-03-17T14:50:01.573Z,35.87
2019-03-17T14:55:01.093Z,35.42
2019-03-17T15:00:01.092Z,36.32
2019-03-17T15:05:01.449Z,35.50
2019-03-17T15:10:01.491Z,36.33
2019-03-17T15:15:01.108Z,35.38
2019-03-17T15:20:01.085Z,35.87
2019-03-17T15:25:01.117Z,35.79
2019-03-17T15:30:01.551Z,36.90
2019-03-17T15:35:05.426Z,35.88
2019-03-17T15:40:01.400Z,37.08
2019-03-17T15:45:01.708Z,37.07
2019-03-17T15:50:01.058Z,37.58
2019-03-17T15:55:01.069Z,38.06
2019-03-17T16:00:01.879Z,38.13
2019-03-17T16:05:01.947Z,39.28
2019-03-17T16:10:01.132Z,39.41
2019-03-17T16:15:01.051Z,39.72
2019-03-17T16:20:01.084Z,39.36
2019-03-17T16:25:01.217Z,40.47
2019-03-17T16:30:01.173Z,40.32
2019-03-17T16:35:01.118Z,41.10
2019-03-17T16:40:01.140Z,42.02
2019-03-17T16:45:01.043Z,41.93
2019-03-17T16:50:01.051Z,41.43
2019-03-17T16:55:01.242Z,42.20
2019-03-17T17:00:01.232Z,42.70
2019-03-17T17:05:01.466Z,43.78
2019-03-17T17:10:01.339Z,44.48
2019-03-17T17:15:01.632Z,44.86
2019-03-17T17:20:01.300Z,45.24
2019-03-17T17:25:01.416Z,46.00
2019-03-17T17:30:01.279Z,46.13
2019-03-17T17:35:01.117Z,46.59
2019-03-17T17:40:01.311Z,47.60
2019-03-17T17:45:01.053Z,47.36
2019-03-17T17:50:01.052Z,47.65
2019-03-17T17:55:01.063Z,47.70
2019-03-17T18:00:01.049Z,48.13
2019-03-17T18:05:01.056Z,47.52
2019-03-17T18:10:01.525Z,48.38
2019-03-17T18:15:01.049Z,48.87
2019-03-17T18:20:01.067Z,48.86
2019-03-17T18:25:01.567Z,49.24
2019-03-17T18:30:01.043Z,48.58
2019-03-17T18:35:01.364Z,47.84
2019-03-17T18:40:01.039Z,47.45
2019-03-17T18:45:01.070Z,47.38
2019-03-17T18:50:01.152Z,47.66
2019-03-17T18:55:01.107Z,48.34
2019-03-17T19:00:04.228Z,48.17
2019-03-17T19:05:01.086Z,48.52
2019-03-17T19:10:01.971Z,49.98
2019-03-17T19:15:01.219Z,49.76
2019-03-17T19:20:01.084Z,50.35
2019-03-17T19:25:01.141Z,50.73
2019-03-17T19:30:01.123Z,52.06
2019-03-17T19:35:01.673Z,54.30
2019-03-17T19:40:01.556Z,54.73
2019-03-17T19:45:02.061Z,53.95
2019-03-17T19:50:01.412Z,50.99
2019-03-17T19:55:01.552Z,50.54
2019-03-17T20:00:01.908Z,51.52
2019-03-17T20:05:01.442Z,51.45
2019-03-17T20:10:01.427Z,50.25
2019-03-17T20:15:01.489Z,49.75
2019-03-17T20:20:01.499Z,49.98
2019-03-17T20:25:01.603Z,49.57
2019-03-17T20:30:01.708Z,49.76
2019-03-17T20:35:01.750Z,49.22
2019-03-17T20:40:02.285Z,49.01
2019-03-17T20:45:01.134Z,50.10
2019-03-17T20:50:01.101Z,50.59
2019-03-17T20:55:01.089Z,50.59
2019-03-17T21:00:01.133Z,50.67
2019-03-17T21:05:01.115Z,51.54
2019-03-17T21:10:01.838Z,52.62
2019-03-17T21:15:01.120Z,53.02
2019-03-17T21:20:01.487Z,56.38
2019-03-17T21:25:01.876Z,58.51
2019-03-17T21:30:01.123Z,60.76
2019-03-17T21:35:01.522Z,62.12
2019-03-17T21:40:01.127Z,63.20
2019-03-17T21:45:01.079Z,63.34
2019-03-17T21:50:01.165Z,64.00
2019-03-17T21:55:01.085Z,65.52
2019-03-17T22:00:01.059Z,67.21
2019-03-17T22:05:01.407Z,68.13
2019-03-17T22:10:01.631Z,69.32
2019-03-17T22:15:01.183Z,71.29
2019-03-17T22:20:01.112Z,72.79
2019-03-17T22:25:01.437Z,71.19
2019-03-17T22:30:01.082Z,71.55
2019-03-17T22:35:01.444Z,71.67
2019-03-17T22:40:01.059Z,72.26
2019-03-17T22:45:01.054Z,71.97
2019-03-17T22:50:01.051Z,71.58
2019-03-17T22:55:01.052Z,72.04
2019-03-17T23:00:01.083Z,72.14
2019-03-17T23:05:01.071Z,72.51
2019-03-17T23:10:01.054Z,72.47
2019-03-17T23:15:01.463Z,73.88
2019-03-17T23:20:01.062Z,73.48
2019-03-17T23:25:01.536Z,73.71
2019-03-17T23:30:01.051Z,73.39
2019-03-17T23:35:01.028Z,73.84
2019-03-17T23:40:01.422Z,74.88
2019-03-17T23:45:01.044Z,74.89
2019-03-17T23:50:01.057Z,74.81
2019-03-17T23:55:01.039Z,73.76
